Soldiers Grove, Wisconsin
Current Conditions -  °F | °C
As of 11:15 PM on Friday 24 Oct 2014 (Local Time) from KY51 Reporting Station
Overcast Overcast  
Wind Chill: 56°   Ceiling: 800
Heat Index: 56°   Visibility: 2mi
Dew Point: 56°   Wind: 5mph
Humidity: 100%   Direction: 230°SW
Pressure: 29.9"   Gusts: NA
Location:  43.4°N, 90.77°W
Report Text: KY51 250415Z AUTO 23004KT 2SM OVC008 14/14 A2990 RMK AO1 T01350135
Loading
Personal Weather Stations






























Interactive Weather Map
Tropical Storm Tracking
New forecast layout! Learn more

10-Day Weather Forecast

Advertisements
Track Severe Weather on mobile